Time;durP1;ratioP1;P1;durP2;ratioP2;P2;SDS_P1;SDS_P2;PMS_P1;PMS_P2;Temp;Humidity;BMP_temperature;BMP_pressure;BME280_temperature;BME280_humidity;BME280_pressure;Samples;Min_cycle;Max_cycle;Signal;HPM_P1;HPM_P2
2024/03/16 00:12:25;;;;;;;14.20;7.25;;;;;;;4.64;100.00;100340.94;4771570;30;20058;-92
2024/03/16 00:20:01;;;;;;;21.40;11.30;;;;;;;4.53;100.00;100342.56;4734808;30;20072;-92
2024/03/16 00:27:28;;;;;;;17.92;9.07;;;;;;;4.47;100.00;100359.50;4704592;30;20132;-92
2024/03/16 00:38:50;;;;;;;18.25;9.05;;;;;;;4.67;100.00;100374.78;4765188;30;20059;-89
2024/03/16 00:46:42;;;;;;;;;;;;;;;4.35;100.00;100383.91;4783129;30;20184;-91
2024/03/16 00:52:55;;;;;;;18.17;9.45;;;;;;;4.33;100.00;100385.81;4757890;30;20138;-91
2024/03/16 00:55:26;;;;;;;17.20;10.53;;;;;;;4.40;100.00;100392.28;4780302;29;20059;-92
2024/03/16 00:57:52;;;;;;;21.95;12.32;;;;;;;4.50;100.00;100397.75;4780302;29;20107;-91
2024/03/16 01:00:23;;;;;;;27.45;13.88;;;;;;;4.55;100.00;100393.03;4785918;29;20127;-91
2024/03/16 01:02:49;;;;;;;25.27;13.05;;;;;;;4.55;100.00;100395.66;4757768;29;20819;-91
2024/03/16 01:05:22;;;;;;;32.08;13.50;;;;;;;4.38;100.00;100391.56;4771942;29;20112;-92
2024/03/16 01:07:50;;;;;;;26.25;13.10;;;;;;;4.22;100.00;100373.47;4765177;29;20049;-91
2024/03/16 01:11:19;;;;;;;27.63;14.75;;;;;;;4.32;100.00;100374.50;4791844;29;20051;-91
2024/03/16 01:17:00;;;;;;;25.17;11.30;;;;;;;4.20;100.00;100383.19;4790543;29;20075;-90
2024/03/16 01:19:43;;;;;;;23.33;13.45;;;;;;;4.15;100.00;100375.66;4787969;29;20043;-91
2024/03/16 01:22:21;;;;;;;17.73;10.15;;;;;;;4.13;100.00;100379.31;4753186;30;20558;-91
2024/03/16 01:24:49;;;;;;;18.98;10.18;;;;;;;4.08;100.00;100392.69;4762017;29;20043;-91
2024/03/16 01:27:15;;;;;;;19.90;10.70;;;;;;;4.15;100.00;100377.44;4774746;30;20044;-90
2024/03/16 01:29:42;;;;;;;19.70;10.63;;;;;;;4.14;100.00;100375.78;4788682;29;20062;-91
2024/03/16 01:32:08;;;;;;;24.95;10.80;;;;;;;4.12;100.00;100378.50;4786632;29;20659;-90
2024/03/16 01:34:35;;;;;;;19.50;10.82;;;;;;;3.99;100.00;100372.41;4785686;29;20426;-90
2024/03/16 01:37:01;;;;;;;20.92;10.85;;;;;;;3.72;100.00;100375.00;4774503;30;20561;-91
2024/03/16 01:39:27;;;;;;;22.40;10.82;;;;;;;3.63;100.00;100375.56;4777806;30;20066;-90
2024/03/16 01:41:53;;;;;;;18.73;11.40;;;;;;;3.72;100.00;100385.44;4788612;29;20041;-90
2024/03/16 01:44:19;;;;;;;18.30;10.18;;;;;;;3.74;100.00;100382.72;4788432;29;20050;-90
2024/03/16 01:46:46;;;;;;;29.60;12.98;;;;;;;3.82;100.00;100382.22;4783184;29;20043;-90
2024/03/16 01:49:12;;;;;;;14.75;10.13;;;;;;;3.75;100.00;100375.72;4782556;29;20047;-90
2024/03/16 01:51:39;;;;;;;14.82;9.30;;;;;;;3.77;100.00;100376.44;4751416;30;20073;-91
2024/03/16 01:54:05;;;;;;;20.90;9.75;;;;;;;3.81;100.00;100383.13;4768241;30;20039;-91
2024/03/16 01:56:32;;;;;;;16.92;8.38;;;;;;;3.83;100.00;100383.88;4786233;29;20039;-90
2024/03/16 01:59:19;;;;;;;16.60;8.02;;;;;;;3.94;100.00;100383.16;4770004;30;20158;-90
2024/03/16 02:02:29;;;;;;;17.48;9.02;;;;;;;3.92;100.00;100375.44;4784949;29;20054;-90
2024/03/16 02:08:45;;;;;;;16.30;9.10;;;;;;;3.80;100.00;100331.81;4772480;29;20128;-90
2024/03/16 02:11:11;;;;;;;19.60;10.25;;;;;;;3.66;100.00;100337.97;4809004;29;20043;-90
2024/03/16 02:13:37;;;;;;;21.30;9.57;;;;;;;3.42;100.00;100328.19;4757797;29;20085;-89
2024/03/16 02:16:04;;;;;;;18.77;9.85;;;;;;;3.36;100.00;100334.63;4747306;30;20131;-91
2024/03/16 02:19:24;;;;;;;20.55;9.77;;;;;;;3.52;100.00;100352.75;4769521;30;20047;-91
2024/03/16 02:22:08;;;;;;;18.35;8.45;;;;;;;3.60;100.00;100342.63;4770215;30;20138;-91
2024/03/16 02:24:38;;;;;;;15.38;8.05;;;;;;;3.63;100.00;100343.38;4770754;30;20040;-90
2024/03/16 02:32:19;;;;;;;15.05;7.45;;;;;;;3.75;100.00;100347.78;4787971;30;20530;-91
2024/03/16 02:34:45;;;;;;;15.00;8.15;;;;;;;3.71;100.00;100351.56;4762325;29;20051;-90
2024/03/16 02:37:11;;;;;;;15.65;7.38;;;;;;;3.70;100.00;100344.63;4767626;30;20038;-89
2024/03/16 02:39:44;;;;;;;14.63;7.72;;;;;;;3.73;100.00;100344.44;4758627;30;20066;-90
2024/03/16 02:42:53;;;;;;;12.82;7.05;;;;;;;3.68;100.00;100349.97;4772143;29;20070;-90
2024/03/16 02:45:34;;;;;;;15.35;7.47;;;;;;;3.58;100.00;100346.31;4783973;29;20087;-90
2024/03/16 02:48:00;;;;;;;12.93;7.18;;;;;;;3.55;100.00;100341.28;4756287;29;20128;-90
2024/03/16 02:50:26;;;;;;;15.13;6.57;;;;;;;3.47;100.00;100332.16;4792635;29;20070;-90
2024/03/16 02:52:55;;;;;;;10.70;5.22;;;;;;;3.52;100.00;100342.31;4783415;29;20492;-90
2024/03/16 02:55:21;;;;;;;10.57;5.35;;;;;;;3.49;100.00;100333.84;4781180;29;20043;-90
2024/03/16 02:57:46;;;;;;;11.23;4.72;;;;;;;3.50;100.00;100343.34;4768158;30;20507;-90
2024/03/16 03:00:38;;;;;;;7.43;4.03;;;;;;;3.49;100.00;100332.06;4780884;29;20514;-89
2024/03/16 03:03:06;;;;;;;7.88;4.43;;;;;;;3.40;100.00;100332.66;4779803;29;20144;-89
2024/03/16 03:05:53;;;;;;;8.50;5.32;;;;;;;3.38;100.00;100324.09;4768570;29;20050;-89
2024/03/16 03:08:19;;;;;;;9.88;4.80;;;;;;;3.36;100.00;100316.34;4776550;30;20125;-89
2024/03/16 03:14:00;;;;;;;8.07;4.38;;;;;;;3.48;100.00;100317.31;4783433;29;20098;-89
2024/03/16 03:16:40;;;;;;;11.95;4.47;;;;;;;3.51;100.00;100316.28;4790656;29;20043;-89
2024/03/16 03:23:05;;;;;;;9.50;3.90;;;;;;;3.49;100.00;100305.91;4756244;30;20547;-89
2024/03/16 03:25:31;;;;;;;6.85;3.42;;;;;;;3.49;100.00;100316.38;4778149;29;20079;-88
2024/03/16 03:27:57;;;;;;;7.65;3.60;;;;;;;3.51;100.00;100313.66;4768266;29;20036;-88
2024/03/16 03:30:23;;;;;;;12.43;4.03;;;;;;;3.44;100.00;100308.84;4766308;30;20933;-89
2024/03/16 03:32:49;;;;;;;7.97;4.30;;;;;;;3.41;100.00;100305.63;4798401;29;20528;-89
2024/03/16 03:35:51;;;;;;;7.25;3.83;;;;;;;3.47;100.00;100306.03;4791287;29;20063;-90
2024/03/16 03:38:17;;;;;;;7.40;2.88;;;;;;;3.36;100.00;100308.50;4760902;30;20047;-89
2024/03/16 03:40:43;;;;;;;6.50;3.95;;;;;;;3.26;100.00;100317.88;4769249;30;20089;-90
2024/03/16 03:43:17;;;;;;;6.68;3.75;;;;;;;3.05;100.00;100313.13;4786546;29;20035;-90
2024/03/16 03:46:04;;;;;;;8.90;4.00;;;;;;;2.88;100.00;100309.81;4747143;30;20035;-90
2024/03/16 03:53:17;;;;;;;4.90;3.22;;;;;;;2.90;100.00;100304.50;4783431;29;20044;-91
2024/03/16 04:00:43;;;;;;;5.93;3.25;;;;;;;3.04;100.00;100304.44;4799436;29;20182;-89
2024/03/16 04:03:46;;;;;;;7.65;3.08;;;;;;;3.22;100.00;100310.25;4742641;30;20083;-91
2024/03/16 04:06:32;;;;;;;7.47;2.47;;;;;;;3.30;100.00;100308.91;4756096;30;20051;-90
2024/03/16 04:09:01;;;;;;;10.68;3.47;;;;;;;3.32;100.00;100294.81;4784687;29;20071;-90
2024/03/16 04:11:27;;;;;;;6.93;3.05;;;;;;;3.46;100.00;100304.34;4774037;30;20066;-89
2024/03/16 04:13:57;;;;;;;4.80;2.65;;;;;;;3.45;100.00;100291.41;4771493;30;20047;-91
2024/03/16 04:16:32;;;;;;;4.35;2.88;;;;;;;3.52;100.00;100305.72;4786172;29;20043;-90
2024/03/16 04:18:58;;;;;;;11.75;3.97;;;;;;;3.49;100.00;100297.25;4759406;30;20701;-90
2024/03/16 04:21:43;;;;;;;7.72;2.67;;;;;;;3.54;100.00;100284.69;4778942;29;20071;-89
2024/03/16 04:28:28;;;;;;;6.00;3.05;;;;;;;3.65;100.00;100286.59;4753820;30;20143;-90
2024/03/16 04:31:00;;;;;;;6.45;2.83;;;;;;;3.72;100.00;100275.66;4785534;29;20134;-90
2024/03/16 04:33:30;;;;;;;7.93;3.25;;;;;;;3.78;100.00;100284.00;4782274;30;20046;-90
2024/03/16 04:35:56;;;;;;;7.57;2.80;;;;;;;3.82;100.00;100273.22;4772364;30;20491;-88
2024/03/16 04:38:22;;;;;;;7.22;2.97;;;;;;;3.83;100.00;100277.53;4765610;30;20043;-89
2024/03/16 04:40:51;;;;;;;4.55;2.83;;;;;;;3.87;100.00;100270.28;4786542;29;20043;-89
2024/03/16 04:43:17;;;;;;;7.88;2.90;;;;;;;3.85;100.00;100273.00;4777885;30;20039;-89
2024/03/16 04:45:50;;;;;;;8.77;3.40;;;;;;;3.98;100.00;100266.97;4787291;29;20050;-89
2024/03/16 04:48:16;;;;;;;6.18;3.03;;;;;;;4.00;100.00;100257.22;4760311;30;20035;-89
2024/03/16 04:50:41;;;;;;;4.25;2.33;;;;;;;4.10;100.00;100257.41;4780002;30;21334;-90
2024/03/16 04:53:11;;;;;;;6.15;2.05;;;;;;;4.19;100.00;100266.38;4781140;30;20095;-89
2024/03/16 04:55:37;;;;;;;8.70;2.30;;;;;;;4.27;100.00;100269.31;4788472;29;20059;-90
2024/03/16 04:58:07;;;;;;;9.27;2.88;;;;;;;4.30;100.00;100253.41;4788336;29;20059;-89
2024/03/16 05:00:52;;;;;;;11.95;3.45;;;;;;;4.15;100.00;100257.94;4788861;30;20126;-89
2024/03/16 05:04:23;;;;;;;7.07;3.00;;;;;;;4.05;100.00;100256.91;4775309;30;20678;-89
2024/03/16 05:06:51;;;;;;;8.60;3.00;;;;;;;3.99;100.00;100250.31;4789958;29;20040;-88
2024/03/16 05:09:17;;;;;;;6.25;2.67;;;;;;;4.03;100.00;100254.38;4788951;29;20046;-89
2024/03/16 05:11:51;;;;;;;6.68;2.95;;;;;;;4.07;100.00;100255.03;4772991;30;20050;-89
2024/03/16 05:14:18;;;;;;;12.85;3.88;;;;;;;4.00;100.00;100249.38;4774530;30;20130;-90
2024/03/16 05:16:43;;;;;;;4.53;2.58;;;;;;;4.06;100.00;100251.56;4769079;30;20499;-90
2024/03/16 05:19:16;;;;;;;4.53;2.60;;;;;;;4.15;100.00;100247.47;4785813;30;20051;-89
2024/03/16 05:21:48;;;;;;;4.47;2.58;;;;;;;4.16;100.00;100248.28;4804258;29;20548;-90
2024/03/16 05:24:23;;;;;;;6.07;3.15;;;;;;;4.20;100.00;100234.06;4788113;29;20043;-89
2024/03/16 05:26:49;;;;;;;7.88;3.28;;;;;;;4.23;100.00;100239.09;4764183;30;20479;-90
2024/03/16 05:29:17;;;;;;;5.55;2.60;;;;;;;4.33;100.00;100244.50;4762168;30;20038;-89
2024/03/16 05:32:48;;;;;;;8.15;2.78;;;;;;;4.34;100.00;100233.94;4779717;29;20046;-89
2024/03/16 05:35:17;;;;;;;7.63;2.90;;;;;;;4.33;100.00;100237.47;4784966;29;20035;-89
2024/03/16 05:37:43;;;;;;;7.70;2.75;;;;;;;4.39;100.00;100251.94;4787812;29;20546;-88
2024/03/16 05:40:10;;;;;;;7.95;2.90;;;;;;;4.40;100.00;100250.13;4802549;29;20035;-90
2024/03/16 05:46:05;;;;;;;7.57;2.50;;;;;;;4.41;100.00;100239.56;4797540;29;20058;-90
2024/03/16 05:48:39;;;;;;;5.35;2.63;;;;;;;4.47;100.00;100244.34;4768151;30;20067;-89
2024/03/16 05:51:05;;;;;;;5.13;2.28;;;;;;;4.52;100.00;100243.19;4769555;30;20075;-89
2024/03/16 05:53:54;;;;;;;;;;;;;;;4.54;100.00;100244.75;4721926;30;20071;-90
2024/03/16 05:56:21;;;;;;;4.82;2.15;;;;;;;4.62;100.00;100246.00;4731906;30;20382;-89
2024/03/16 05:58:48;;;;;;;4.63;1.98;;;;;;;4.68;100.00;100249.00;4788241;29;20138;-89
2024/03/16 06:01:14;;;;;;;3.67;2.10;;;;;;;4.78;100.00;100254.41;4767601;30;20043;-90
2024/03/16 06:03:40;;;;;;;5.45;1.85;;;;;;;4.84;100.00;100243.47;4771592;30;20115;-90
2024/03/16 06:06:06;;;;;;;5.88;2.00;;;;;;;4.95;100.00;100258.41;4756695;30;20047;-89
2024/03/16 06:12:12;;;;;;;5.45;2.15;;;;;;;4.88;100.00;100261.59;4786352;30;20051;-89
2024/03/16 06:14:40;;;;;;;5.32;2.08;;;;;;;4.90;100.00;100259.69;4746481;30;20047;-89
2024/03/16 06:17:06;;;;;;;7.03;2.13;;;;;;;4.90;100.00;100259.69;4769096;29;20546;-89
2024/03/16 06:19:32;;;;;;;7.43;1.88;;;;;;;4.92;100.00;100257.81;4795443;29;20550;-89
2024/03/16 06:21:58;;;;;;;3.65;1.92;;;;;;;5.00;100.00;100265.09;4777617;30;20082;-89
2024/03/16 06:24:24;;;;;;;7.35;1.85;;;;;;;5.05;100.00;100258.56;4741043;30;20063;-89
2024/03/16 06:27:00;;;;;;;4.82;1.88;;;;;;;5.07;100.00;100250.59;4768159;29;20039;-89
2024/03/16 06:29:26;;;;;;;5.82;1.77;;;;;;;5.11;100.00;100252.06;4766535;30;20035;-88
2024/03/16 06:32:05;;;;;;;3.42;1.50;;;;;;;5.18;100.00;100249.78;4741978;30;20044;-88
2024/03/16 06:34:34;;;;;;;6.05;1.70;;;;;;;5.27;100.00;100262.22;4761730;30;20048;-89
2024/03/16 06:37:04;;;;;;;4.05;1.95;;;;;;;5.27;100.00;100256.97;4748092;30;20132;-88
2024/03/16 06:39:29;;;;;;;6.20;2.00;;;;;;;5.27;100.00;100241.25;4748149;30;20043;-88
2024/03/16 06:42:58;;;;;;;3.63;2.00;;;;;;;5.34;100.00;100246.88;4753343;30;20036;-89
2024/03/16 06:45:28;;;;;;;8.48;2.03;;;;;;;5.33;100.00;100247.84;4766526;30;20066;-89
2024/03/16 06:47:54;;;;;;;2.42;1.60;;;;;;;5.38;100.00;100240.47;4752834;30;20507;-88
2024/03/16 06:50:22;;;;;;;5.13;2.15;;;;;;;5.38;100.00;100232.59;4796203;29;22737;-88
2024/03/16 06:52:48;;;;;;;4.80;1.58;;;;;;;5.42;100.00;100227.94;4784851;30;20051;-88
2024/03/16 06:55:17;;;;;;;9.43;3.60;;;;;;;5.46;100.00;100238.09;4761364;30;20491;-88
2024/03/16 06:57:44;;;;;;;10.60;5.20;;;;;;;5.50;100.00;100237.84;4753524;30;20046;-87
2024/03/16 07:00:11;;;;;;;11.43;3.10;;;;;;;5.54;100.00;100237.50;4789680;29;20043;-89
2024/03/16 07:05:55;;;;;;;10.73;3.72;;;;;;;5.62;100.00;100223.84;4795418;29;20035;-88
2024/03/16 07:08:21;;;;;;;7.70;2.33;;;;;;;5.70;100.00;100231.09;4783301;30;20043;-88
2024/03/16 07:10:59;;;;;;;8.38;2.40;;;;;;;5.78;100.00;100231.31;4799671;29;20051;-88
2024/03/16 07:13:29;;;;;;;9.35;3.20;;;;;;;5.81;100.00;100223.22;4769285;30;20498;-86
2024/03/16 07:16:41;;;;;;;8.15;2.75;;;;;;;5.93;100.00;100225.84;4800294;29;20036;-88
2024/03/16 07:19:26;;;;;;;5.82;2.30;;;;;;;5.95;100.00;100221.34;4763559;30;20590;-88
2024/03/16 07:21:52;;;;;;;6.07;2.58;;;;;;;5.94;100.00;100212.63;4790573;29;20134;-87
2024/03/16 07:24:38;;;;;;;6.35;2.33;;;;;;;6.07;100.00;100215.16;4799394;29;20034;-87
2024/03/16 07:27:53;;;;;;;9.32;2.60;;;;;;;6.12;100.00;100209.53;4770243;30;20035;-87
2024/03/16 07:30:30;;;;;;;6.80;2.45;;;;;;;6.13;100.00;100211.19;4784181;30;20062;-87
2024/03/16 07:33:38;;;;;;;6.40;2.80;;;;;;;6.22;100.00;100220.16;4781378;29;20035;-87
2024/03/16 07:36:04;;;;;;;7.38;2.28;;;;;;;6.23;100.00;100213.94;4761920;30;20764;-87
2024/03/16 07:38:30;;;;;;;13.60;3.45;;;;;;;6.23;100.00;100207.88;4788553;29;20092;-87
2024/03/16 07:41:04;;;;;;;13.88;3.47;;;;;;;6.26;100.00;100205.00;4795080;29;20047;-87
2024/03/16 07:43:31;;;;;;;8.85;2.78;;;;;;;6.24;100.00;100209.53;4760557;30;20138;-87
2024/03/16 07:45:57;;;;;;;9.82;2.20;;;;;;;6.26;100.00;100212.88;4786440;29;20035;-87
2024/03/16 07:48:25;;;;;;;7.38;2.35;;;;;;;6.30;100.00;100211.66;4789805;29;20407;-87
2024/03/16 07:51:46;;;;;;;6.43;2.90;;;;;;;6.37;100.00;100210.19;4771394;30;20071;-87
2024/03/16 07:54:15;;;;;;;8.57;1.95;;;;;;;6.37;100.00;100207.56;4749743;30;20039;-87
2024/03/16 07:56:43;;;;;;;6.90;1.77;;;;;;;6.55;100.00;100207.91;4763423;29;20043;-88
2024/03/16 07:59:09;;;;;;;6.45;1.50;;;;;;;6.67;100.00;100200.00;4770144;30;20379;-89
2024/03/16 08:02:10;;;;;;;7.18;1.88;;;;;;;6.84;100.00;100195.97;4788088;30;20070;-88
2024/03/16 08:05:25;;;;;;;7.97;1.95;;;;;;;6.93;100.00;100197.00;4785350;30;20069;-88
2024/03/16 08:08:05;;;;;;;8.30;1.25;;;;;;;7.00;100.00;100184.19;4753108;30;20433;-87
2024/03/16 08:10:37;;;;;;;5.40;1.80;;;;;;;7.12;100.00;100182.38;4771522;30;20040;-86
2024/03/16 08:13:13;;;;;;;9.15;1.15;;;;;;;7.16;100.00;100178.50;4785463;30;20043;-87
2024/03/16 08:16:15;;;;;;;8.10;2.08;;;;;;;7.18;100.00;100171.34;4785601;30;20502;-88
2024/03/16 08:18:48;;;;;;;7.32;1.60;;;;;;;7.35;100.00;100172.53;4772474;30;20055;-88
2024/03/16 08:21:36;;;;;;;11.45;1.60;;;;;;;7.37;100.00;100172.41;4785864;29;20130;-89
2024/03/16 08:24:28;;;;;;;7.97;1.30;;;;;;;7.48;100.00;100163.59;4771923;30;20039;-89
2024/03/16 08:27:09;;;;;;;10.95;1.38;;;;;;;7.48;100.00;100168.84;4787648;29;20031;-87
2024/03/16 08:29:37;;;;;;;3.33;0.93;;;;;;;7.53;100.00;100172.75;4756007;30;20047;-86
2024/03/16 08:32:14;;;;;;;3.45;1.10;;;;;;;7.65;100.00;100165.63;4768228;30;20118;-90
2024/03/16 08:34:51;;;;;;;10.50;1.40;;;;;;;7.71;100.00;100171.31;4772082;30;20502;-89
2024/03/16 08:37:24;;;;;;;5.57;1.30;;;;;;;7.69;100.00;100169.63;4773103;30;20051;-87
2024/03/16 08:39:53;;;;;;;7.50;1.30;;;;;;;7.74;100.00;100158.72;4779594;30;20085;-88
2024/03/16 08:42:25;;;;;;;5.65;1.05;;;;;;;7.82;100.00;100161.53;4785600;30;20035;-88
2024/03/16 08:45:12;;;;;;;9.05;1.15;;;;;;;7.75;100.00;100147.25;4755823;30;20043;-88
2024/03/16 08:47:43;;;;;;;3.33;1.00;;;;;;;7.91;100.00;100148.53;4774775;30;20559;-89
2024/03/16 08:50:46;;;;;;;11.27;1.50;;;;;;;7.91;100.00;100152.00;4757948;30;20138;-88
2024/03/16 08:53:44;;;;;;;4.53;0.90;;;;;;;7.99;100.00;100174.19;4798505;29;20036;-90
2024/03/16 08:56:39;;;;;;;4.30;0.98;;;;;;;7.97;100.00;100182.22;4788371;29;20125;-89
2024/03/16 08:59:20;;;;;;;9.82;1.40;;;;;;;7.99;100.00;100163.66;4801841;29;20046;-90
2024/03/16 09:01:54;;;;;;;7.72;0.88;;;;;;;7.99;100.00;100171.53;4782934;29;20036;-87
2024/03/16 09:04:33;;;;;;;4.53;0.82;;;;;;;8.09;100.00;100156.59;4788060;29;20060;-89
2024/03/16 09:07:13;;;;;;;1.90;0.80;;;;;;;8.11;100.00;100164.34;4763637;30;20100;-88
2024/03/16 09:09:41;;;;;;;2.05;0.40;;;;;;;8.18;100.00;100157.59;4767232;30;20051;-89
2024/03/16 09:12:13;;;;;;;1.90;0.52;;;;;;;8.19;100.00;100167.16;4749121;30;20596;-88
2024/03/16 09:14:55;;;;;;;;;;;;;;;;;;;;;
2024/03/16 09:17:24;;;;;;;2.58;0.52;;;;;;;8.27;100.00;100155.94;4763858;30;20048;-87
2024/03/16 09:19:58;;;;;;;3.08;0.77;;;;;;;8.32;100.00;100161.63;4736084;30;20036;-88
2024/03/16 09:26:17;;;;;;;1.85;0.50;;;;;;;8.36;100.00;100146.41;4719588;30;20072;-87
2024/03/16 09:28:45;;;;;;;1.35;0.22;;;;;;;8.41;100.00;100154.69;4749979;30;20448;-89
2024/03/16 09:31:14;;;;;;;1.17;0.20;;;;;;;8.37;100.00;100146.25;4753411;30;20102;-89
2024/03/16 09:37:39;;;;;;;2.70;0.30;;;;;;;8.44;100.00;100138.66;4753492;30;20134;-88
2024/03/16 09:40:13;;;;;;;2.35;0.17;;;;;;;8.42;100.00;100130.88;4785786;30;20043;-88
2024/03/16 09:42:46;;;;;;;5.28;0.45;;;;;;;8.52;100.00;100130.88;4754169;30;20043;-88
2024/03/16 09:45:39;;;;;;;;;;;;;;;8.49;100.00;100131.16;4785606;30;20166;-90
2024/03/16 09:48:16;;;;;;;2.85;0.32;;;;;;;8.58;100.00;100131.31;4767082;30;19921;-88
2024/03/16 09:50:49;;;;;;;1.77;0.40;;;;;;;8.56;100.00;100136.72;4753551;30;20031;-86
2024/03/16 09:53:58;;;;;;;1.05;0.10;;;;;;;8.60;100.00;100135.47;4741890;30;20048;-88
2024/03/16 09:56:24;;;;;;;1.95;0.30;;;;;;;8.59;100.00;100148.78;4754101;30;20052;-87
2024/03/16 09:58:50;;;;;;;1.45;0.28;;;;;;;8.57;100.00;100138.38;4755856;30;20684;-88
2024/03/16 10:01:24;;;;;;;0.68;0.20;;;;;;;8.64;100.00;100136.03;4740564;30;20148;-88
2024/03/16 10:03:53;;;;;;;0.63;0.10;;;;;;;8.62;100.00;100138.81;4766559;30;20042;-85
2024/03/16 10:06:19;;;;;;;0.30;0.20;;;;;;;8.64;100.00;100136.03;4755348;30;20119;-87
2024/03/16 10:12:24;;;;;;;0.40;0.10;;;;;;;8.73;100.00;100119.38;4771394;30;20051;-86
2024/03/16 10:15:15;;;;;;;1.45;0.20;;;;;;;8.84;100.00;100122.84;4766409;30;20642;-87
2024/03/16 10:17:41;;;;;;;0.95;0.22;;;;;;;8.85;100.00;100121.88;4784565;29;20035;-86
2024/03/16 10:20:16;;;;;;;1.65;0.20;;;;;;;8.89;100.00;100117.97;4744835;30;20101;-88
2024/03/16 10:22:50;;;;;;;3.30;0.30;;;;;;;8.91;100.00;100111.59;4759170;30;20095;-89
2024/03/16 10:25:37;;;;;;;1.58;0.30;;;;;;;8.97;100.00;100107.56;4778441;29;20051;-88
2024/03/16 10:28:17;;;;;;;1.17;0.10;;;;;;;9.02;100.00;100081.59;4743125;30;20560;-88
2024/03/16 10:34:22;;;;;;;;;;;;;;;9.14;100.00;100074.34;4772788;30;20110;-85
2024/03/16 10:37:08;;;;;;;0.40;0.10;;;;;;;9.26;100.00;100066.25;4758757;30;19933;-87
2024/03/16 10:39:35;;;;;;;0.68;0.38;;;;;;;9.29;100.00;100068.59;4777115;30;20075;-90
2024/03/16 10:42:11;;;;;;;0.73;0.30;;;;;;;9.32;100.00;100067.50;4788319;29;20062;-89
2024/03/16 10:45:05;;;;;;;1.75;0.30;;;;;;;9.42;100.00;100078.81;4752894;30;20116;-86
2024/03/16 10:48:14;;;;;;;0.85;0.30;;;;;;;9.42;100.00;100053.28;4764247;30;20055;-90
2024/03/16 10:50:46;;;;;;;0.95;0.32;;;;;;;9.50;100.00;100065.75;4764990;30;20082;-86
2024/03/16 10:53:19;;;;;;;0.80;0.32;;;;;;;9.59;100.00;100050.81;4781698;29;20051;-88
2024/03/16 10:56:16;;;;;;;1.45;0.80;;;;;;;9.66;100.00;100044.00;4784985;30;20050;-88
2024/03/16 10:59:10;;;;;;;0.30;0.30;;;;;;;9.74;100.00;100039.75;4780866;29;20122;-88
2024/03/16 11:01:48;;;;;;;2.33;0.40;;;;;;;9.76;100.00;100043.09;4786668;29;20104;-89
2024/03/16 11:04:22;;;;;;;1.67;0.40;;;;;;;9.89;100.00;100048.03;4767382;30;20047;-89
2024/03/16 11:06:54;;;;;;;1.50;0.43;;;;;;;9.90;100.00;100044.38;4782532;29;20063;-88
2024/03/16 11:09:32;;;;;;;1.85;0.40;;;;;;;9.92;100.00;100045.88;4769025;30;21259;-89
2024/03/16 11:12:36;;;;;;;1.67;0.63;;;;;;;9.95;100.00;100050.06;4795584;29;20108;-88
2024/03/16 11:15:30;;;;;;;0.98;0.45;;;;;;;9.96;100.00;100056.16;4780331;29;20042;-85
2024/03/16 11:18:15;;;;;;;1.73;0.40;;;;;;;9.99;100.00;100056.69;4784891;30;20050;-88
2024/03/16 11:21:01;;;;;;;0.88;0.40;;;;;;;9.96;100.00;100064.91;4785002;29;20126;-88
2024/03/16 11:23:31;;;;;;;2.05;0.40;;;;;;;9.97;100.00;100066.56;4756154;30;20043;-86
2024/03/16 11:26:24;;;;;;;0.52;0.30;;;;;;;10.02;100.00;100055.53;4799742;29;20051;-87
2024/03/16 11:32:47;;;;;;;2.70;0.40;;;;;;;10.12;100.00;100047.56;4764137;30;20055;-89
2024/03/16 11:35:51;;;;;;;1.85;0.50;;;;;;;10.16;100.00;100059.50;4791148;29;20039;-86
2024/03/16 11:41:53;;;;;;;1.27;0.50;;;;;;;10.17;100.00;100056.69;4777199;30;20055;-89
2024/03/16 11:44:20;;;;;;;6.25;0.50;;;;;;;10.20;100.00;100049.44;4789132;29;20402;-93
2024/03/16 11:46:48;;;;;;;1.95;0.40;;;;;;;10.20;100.00;100036.22;4770482;30;20056;-91
2024/03/16 11:49:42;;;;;;;1.45;0.60;;;;;;;10.23;100.00;100036.75;4775841;29;20108;-92
2024/03/16 11:52:08;;;;;;;0.98;0.40;;;;;;;10.39;100.00;100038.72;4775478;30;20427;-91
2024/03/16 11:54:34;;;;;;;0.80;0.55;;;;;;;10.46;100.00;100027.53;4759902;30;20075;-92
2024/03/16 11:57:16;;;;;;;0.95;0.40;;;;;;;10.55;100.00;100024.00;4765125;30;20143;-91
2024/03/16 11:59:42;;;;;;;0.90;0.40;;;;;;;10.60;100.00;100023.53;4787279;30;20040;-93
2024/03/16 12:02:18;;;;;;;0.63;0.45;;;;;;;10.56;100.00;100014.25;4777621;30;20039;-91
2024/03/16 12:04:48;;;;;;;2.30;0.55;;;;;;;10.65;100.00;100026.53;4788644;30;20367;-91
2024/03/16 12:07:27;;;;;;;;;;;;;;;;;;;;;
2024/03/16 12:10:28;;;;;;;0.82;0.45;;;;;;;10.73;100.00;100007.25;4776857;30;20627;-82
2024/03/16 12:12:56;;;;;;;2.25;0.60;;;;;;;10.73;100.00;100013.38;4765279;30;20127;-90
2024/03/16 12:15:49;;;;;;;3.80;0.90;;;;;;;10.74;100.00;99987.75;4783701;30;20165;-90
2024/03/16 12:18:21;;;;;;;1.25;0.60;;;;;;;10.83;100.00;100000.03;4770252;30;20144;-89
2024/03/16 12:20:50;;;;;;;3.67;0.57;;;;;;;10.90;100.00;99992.31;4769753;29;20524;-90
2024/03/16 12:23:28;;;;;;;1.63;0.55;;;;;;;10.93;100.00;99992.00;4777417;29;20130;-89
2024/03/16 12:26:15;;;;;;;1.85;0.60;;;;;;;10.96;100.00;99990.88;4780346;29;20042;-89
2024/03/16 12:28:43;;;;;;;2.75;0.73;;;;;;;11.02;100.00;99988.41;4774786;29;20483;-88
2024/03/16 12:31:12;;;;;;;1.88;0.43;;;;;;;11.15;100.00;99987.13;4782143;30;20043;-90
2024/03/16 12:33:43;;;;;;;1.15;0.50;;;;;;;11.24;100.00;99977.41;4759036;30;20072;-89
2024/03/16 12:36:16;;;;;;;3.50;0.60;;;;;;;11.36;100.00;99978.75;4774521;30;20380;-90
2024/03/16 12:38:43;;;;;;;1.77;0.60;;;;;;;11.43;100.00;99986.06;4759369;30;20039;-91
2024/03/16 12:41:12;;;;;;;2.03;0.57;;;;;;;11.45;100.00;99969.00;4786377;30;20048;-91
2024/03/16 12:43:43;;;;;;;1.55;0.55;;;;;;;11.52;100.00;99966.56;4772279;30;20570;-90
2024/03/16 12:46:09;;;;;;;4.47;0.85;;;;;;;11.47;100.00;99961.75;4771606;30;20504;-89
2024/03/16 12:48:39;;;;;;;2.22;0.47;;;;;;;11.51;100.00;99960.47;4758857;30;20058;-91
2024/03/16 12:51:12;;;;;;;1.75;0.70;;;;;;;11.51;100.00;99954.31;4773242;29;20047;-90
2024/03/16 12:53:44;;;;;;;2.13;0.70;;;;;;;11.55;100.00;99945.06;4803709;29;20130;-91
2024/03/16 12:56:13;;;;;;;2.35;0.70;;;;;;;11.68;100.00;99954.34;4788113;30;20130;-92
2024/03/16 12:59:02;;;;;;;6.30;1.60;;;;;;;11.71;100.00;99949.56;4765897;30;20081;-91
2024/03/16 13:01:31;;;;;;;2.67;0.60;;;;;;;11.64;100.00;99922.91;4788780;30;20047;-89
2024/03/16 13:04:10;;;;;;;3.35;0.93;;;;;;;11.68;100.00;99918.09;4774546;30;20051;-90
2024/03/16 13:06:37;;;;;;;1.83;0.50;;;;;;;11.67;100.00;99908.53;4770245;30;20039;-89
2024/03/16 13:09:13;;;;;;;1.65;0.85;;;;;;;11.69;100.00;99911.81;4784321;30;20043;-90
2024/03/16 13:11:42;;;;;;;1.00;0.40;;;;;;;11.73;100.00;99912.31;4750155;30;20095;-89
2024/03/16 13:14:09;;;;;;;2.75;0.80;;;;;;;11.69;100.00;99918.94;4786640;29;20750;-90
2024/03/16 13:16:38;;;;;;;2.35;0.52;;;;;;;11.72;100.00;99927.38;4759710;30;21256;-90
2024/03/16 13:19:07;;;;;;;1.70;0.60;;;;;;;11.70;100.00;99908.19;4771500;29;20122;-89
2024/03/16 13:21:33;;;;;;;0.85;0.43;;;;;;;11.70;100.00;99925.88;4788828;29;20040;-86
2024/03/16 13:24:00;;;;;;;0.50;0.30;;;;;;;11.68;100.00;99912.81;4788036;30;20043;-91
2024/03/16 13:26:30;;;;;;;1.25;0.60;;;;;;;11.68;100.00;99902.22;4803124;29;20039;-90
2024/03/16 13:29:04;;;;;;;1.85;0.45;;;;;;;11.67;100.00;99903.22;4791224;29;20384;-89
2024/03/16 13:31:33;;;;;;;0.90;0.40;;;;;;;11.68;100.00;99910.16;4761749;30;20047;-89
2024/03/16 13:34:00;;;;;;;2.30;0.40;;;;;;;11.71;100.00;99909.84;4784739;29;20039;-89
2024/03/16 13:36:29;;;;;;;1.90;0.47;;;;;;;11.64;100.00;99893.78;4772376;30;20081;-90
2024/03/16 13:39:10;;;;;;;1.13;0.40;;;;;;;11.70;100.00;99902.06;4767461;30;20043;-89
2024/03/16 13:41:39;;;;;;;1.40;0.30;;;;;;;11.68;100.00;99907.53;4770764;30;20039;-86
2024/03/16 13:44:23;;;;;;;1.38;0.40;;;;;;;11.58;100.00;99902.38;4777893;30;20035;-91
2024/03/16 13:46:51;;;;;;;0.60;0.20;;;;;;;11.52;100.00;99903.88;4785176;29;20043;-90
2024/03/16 13:49:20;;;;;;;0.40;0.30;;;;;;;11.55;100.00;99908.00;4768957;30;20465;-86